createdAt,value
2022-09-15T00:00:31.059Z,4.03
2022-09-15T00:02:57.922Z,4.43
2022-09-15T00:05:24.736Z,4.80
2022-09-15T00:07:51.487Z,3.93
2022-09-15T00:10:18.690Z,4.07
2022-09-15T00:12:45.469Z,3.90
2022-09-15T00:15:14.790Z,4.30
2022-09-15T00:17:43.339Z,3.97
2022-09-15T00:20:11.021Z,4.60
2022-09-15T00:22:38.091Z,4.37
2022-09-15T00:25:06.424Z,4.03
2022-09-15T00:27:33.741Z,4.50
2022-09-15T00:30:01.011Z,4.63
2022-09-15T00:32:29.353Z,4.30
2022-09-15T00:34:56.131Z,4.37
2022-09-15T00:37:23.139Z,4.57
2022-09-15T00:39:50.171Z,4.20
2022-09-15T00:42:19.602Z,4.30
2022-09-15T00:45:12.083Z,4.50
2022-09-15T00:47:40.138Z,4.67
2022-09-15T00:50:14.618Z,4.33
2022-09-15T00:52:49.933Z,4.30
2022-09-15T00:55:45.108Z,4.37
2022-09-15T00:58:25.526Z,4.43
2022-09-15T01:00:58.826Z,4.20
2022-09-15T01:03:27.577Z,4.30
2022-09-15T01:05:58.512Z,4.60
2022-09-15T01:08:34.461Z,4.40
2022-09-15T01:11:01.587Z,4.10
2022-09-15T01:13:29.763Z,4.93
2022-09-15T01:16:05.473Z,4.90
2022-09-15T01:18:43.914Z,4.97
2022-09-15T01:21:19.704Z,4.73
2022-09-15T01:24:07.672Z,5.10
2022-09-15T01:27:24.411Z,4.63
2022-09-15T01:30:15.823Z,4.93
2022-09-15T01:33:06.872Z,5.60
2022-09-15T01:35:33.732Z,4.97
2022-09-15T01:38:12.716Z,5.20
2022-09-15T01:40:46.318Z,5.33
2022-09-15T01:43:14.939Z,5.27
2022-09-15T01:45:44.689Z,4.80
2022-09-15T01:48:12.037Z,5.43
2022-09-15T01:50:46.299Z,5.23
2022-09-15T01:53:17.938Z,5.13
2022-09-15T01:55:52.402Z,5.50
2022-09-15T01:58:19.446Z,5.30
2022-09-15T02:00:53.806Z,5.40
2022-09-15T02:03:57.775Z,5.00
2022-09-15T02:06:37.327Z,5.07
2022-09-15T02:09:43.901Z,5.20
2022-09-15T02:12:33.965Z,5.73
2022-09-15T02:15:11.696Z,5.33
2022-09-15T02:17:45.649Z,5.40
2022-09-15T02:20:35.243Z,5.50
2022-09-15T02:23:08.523Z,5.33
2022-09-15T02:25:41.907Z,5.30
2022-09-15T02:28:11.728Z,5.73
2022-09-15T02:30:41.905Z,5.90
2022-09-15T02:33:14.140Z,5.37
2022-09-15T02:35:41.954Z,6.20
2022-09-15T02:38:10.906Z,5.70
2022-09-15T02:40:42.092Z,5.73
2022-09-15T02:43:13.938Z,6.17
2022-09-15T02:45:40.833Z,5.77
2022-09-15T02:48:11.689Z,5.43
2022-09-15T02:50:38.947Z,5.40
2022-09-15T02:53:05.818Z,5.53
2022-09-15T02:55:32.830Z,5.80
2022-09-15T02:58:00.083Z,5.33
2022-09-15T03:00:28.422Z,5.43
2022-09-15T03:02:56.147Z,5.33
2022-09-15T03:05:30.310Z,5.43
2022-09-15T03:07:57.420Z,5.63
2022-09-15T03:10:25.803Z,6.47
2022-09-15T03:12:54.222Z,6.07
2022-09-15T03:15:23.684Z,5.70
2022-09-15T03:17:50.825Z,5.83
2022-09-15T03:20:20.323Z,6.27
2022-09-15T03:22:48.064Z,5.30
2022-09-15T03:25:15.773Z,5.70
2022-09-15T03:27:42.626Z,5.47
2022-09-15T03:30:10.126Z,5.87
2022-09-15T03:32:37.274Z,5.60
2022-09-15T03:35:05.217Z,6.40
2022-09-15T03:37:32.387Z,5.30
2022-09-15T03:39:59.446Z,5.30
2022-09-15T03:42:26.316Z,5.50
2022-09-15T03:44:53.115Z,5.80
2022-09-15T03:47:19.853Z,5.50
2022-09-15T03:49:46.621Z,5.87
2022-09-15T03:52:13.808Z,5.90
2022-09-15T03:54:40.600Z,5.77
2022-09-15T03:57:07.487Z,6.00
2022-09-15T03:59:34.317Z,5.73
2022-09-15T04:02:01.156Z,5.70
2022-09-15T04:04:28.289Z,6.30
2022-09-15T04:06:55.109Z,6.30
2022-09-15T04:09:21.912Z,5.33
2022-09-15T04:11:48.703Z,6.07
2022-09-15T04:14:15.641Z,6.07
2022-09-15T04:16:42.583Z,5.90
2022-09-15T04:19:09.442Z,6.27
2022-09-15T04:21:36.241Z,5.63
2022-09-15T04:24:04.837Z,5.77
2022-09-15T04:26:34.773Z,5.90
2022-09-15T04:29:04.494Z,5.90
2022-09-15T04:31:33.109Z,6.33
2022-09-15T04:34:00.633Z,6.10
2022-09-15T04:36:28.749Z,5.50
2022-09-15T04:38:56.431Z,5.60
2022-09-15T04:41:23.748Z,6.13
2022-09-15T04:43:51.103Z,6.07
2022-09-15T04:46:18.546Z,5.40
2022-09-15T04:48:46.319Z,5.60
2022-09-15T04:51:16.155Z,5.70
2022-09-15T04:53:43.647Z,5.90
2022-09-15T04:56:16.492Z,5.63
2022-09-15T04:58:46.034Z,5.27
2022-09-15T05:01:25.439Z,5.90
2022-09-15T05:03:53.142Z,5.73
2022-09-15T05:06:22.792Z,5.90
2022-09-15T05:08:51.879Z,6.03
2022-09-15T05:11:19.662Z,6.43
2022-09-15T05:13:47.014Z,6.00
2022-09-15T05:16:16.421Z,5.67
2022-09-15T05:18:45.387Z,6.10
2022-09-15T05:21:14.076Z,5.67
2022-09-15T05:23:41.336Z,5.67
2022-09-15T05:26:20.028Z,5.70
2022-09-15T05:28:46.816Z,6.10
2022-09-15T05:31:20.779Z,5.80
2022-09-15T05:33:48.909Z,5.97
2022-09-15T05:36:17.425Z,6.27
2022-09-15T05:38:44.363Z,6.27
2022-09-15T05:41:17.565Z,5.60
2022-09-15T05:43:46.107Z,5.73
2022-09-15T05:46:14.028Z,6.00
2022-09-15T05:48:41.070Z,6.33
2022-09-15T05:51:08.033Z,5.57
2022-09-15T05:53:35.851Z,5.57
2022-09-15T05:56:05.684Z,4.93
2022-09-15T05:58:33.155Z,5.17
2022-09-15T06:01:09.915Z,5.30
2022-09-15T06:03:37.073Z,4.77
2022-09-15T06:06:05.548Z,4.83
2022-09-15T06:08:34.715Z,5.13
2022-09-15T06:11:06.846Z,5.10
2022-09-15T06:13:33.755Z,4.90
2022-09-15T06:16:05.885Z,5.47
2022-09-15T06:18:34.099Z,5.07
2022-09-15T06:21:08.117Z,4.87
2022-09-15T06:23:35.221Z,5.10
2022-09-15T06:26:16.849Z,4.27
2022-09-15T06:28:52.646Z,4.60
2022-09-15T06:31:19.834Z,4.90
2022-09-15T06:33:51.238Z,4.87
2022-09-15T06:36:19.427Z,4.47
2022-09-15T06:38:46.579Z,4.50
2022-09-15T06:41:14.014Z,4.63
2022-09-15T06:43:41.569Z,4.10
2022-09-15T06:46:10.889Z,3.93
2022-09-15T06:48:39.159Z,3.77
2022-09-15T06:51:07.985Z,3.23
2022-09-15T06:53:37.628Z,3.50
2022-09-15T06:56:04.534Z,3.63
2022-09-15T06:58:32.041Z,3.60
2022-09-15T07:01:04.014Z,3.40
2022-09-15T07:03:31.478Z,3.20
2022-09-15T07:05:58.359Z,3.23
2022-09-15T07:08:25.196Z,3.60
2022-09-15T07:10:52.288Z,3.43
2022-09-15T07:13:19.155Z,2.90
2022-09-15T07:15:52.011Z,3.07
2022-09-15T07:18:18.913Z,2.63
2022-09-15T07:20:45.805Z,2.90
2022-09-15T07:23:12.737Z,2.57
2022-09-15T07:25:45.188Z,2.70
2022-09-15T07:28:13.133Z,2.60
2022-09-15T07:30:40.334Z,2.87
2022-09-15T07:33:08.703Z,2.63
2022-09-15T07:35:40.577Z,2.50
2022-09-15T07:38:07.633Z,2.70
2022-09-15T07:40:34.594Z,2.60
2022-09-15T07:43:01.428Z,2.50
2022-09-15T07:45:28.416Z,2.43
2022-09-15T07:47:55.323Z,2.80
2022-09-15T07:50:22.203Z,2.67
2022-09-15T07:52:49.079Z,2.60
2022-09-15T07:55:15.954Z,2.63
2022-09-15T07:57:42.712Z,2.37
2022-09-15T08:00:10.018Z,2.60
2022-09-15T08:02:39.508Z,2.37
2022-09-15T08:05:06.961Z,2.40
2022-09-15T08:07:33.700Z,2.40
2022-09-15T08:10:00.453Z,2.40
2022-09-15T08:12:27.213Z,2.30
2022-09-15T08:14:54.060Z,2.50
2022-09-15T08:17:20.839Z,2.60
2022-09-15T08:19:47.701Z,2.50
2022-09-15T08:22:14.468Z,2.67
2022-09-15T08:24:41.240Z,2.30
2022-09-15T08:27:08.025Z,2.00
2022-09-15T08:29:34.979Z,2.03
2022-09-15T08:32:02.216Z,2.20
2022-09-15T08:34:29.854Z,2.30
2022-09-15T08:36:56.703Z,2.00
2022-09-15T08:39:23.640Z,2.20
2022-09-15T08:41:53.789Z,2.07
2022-09-15T08:44:38.218Z,2.00
2022-09-15T08:47:29.495Z,2.27
2022-09-15T08:50:22.998Z,2.27
2022-09-15T08:53:09.737Z,2.20
2022-09-15T08:55:49.979Z,2.10
2022-09-15T08:58:24.622Z,2.10
2022-09-15T09:01:15.359Z,2.27
2022-09-15T09:04:06.780Z,1.90
2022-09-15T09:07:08.944Z,2.00
2022-09-15T09:09:53.728Z,1.90
2022-09-15T09:12:41.825Z,2.20
2022-09-15T09:15:16.229Z,2.20
2022-09-15T09:18:14.135Z,2.23
2022-09-15T09:21:05.377Z,2.17
2022-09-15T09:23:34.149Z,1.90
2022-09-15T09:26:02.127Z,1.83
2022-09-15T09:28:31.014Z,2.03
2022-09-15T09:31:08.410Z,2.07
2022-09-15T09:33:49.726Z,1.70
2022-09-15T09:36:16.640Z,1.93
2022-09-15T09:38:46.890Z,2.20
2022-09-15T09:41:25.887Z,1.60
2022-09-15T09:43:55.625Z,1.80
2022-09-15T09:46:22.705Z,1.80
2022-09-15T09:49:01.238Z,1.90
2022-09-15T09:51:53.626Z,1.90
2022-09-15T09:54:25.027Z,2.10
2022-09-15T09:56:53.618Z,2.13
2022-09-15T09:59:49.647Z,2.20
2022-09-15T10:02:19.546Z,2.00
2022-09-15T10:04:49.062Z,1.90
2022-09-15T10:07:18.849Z,1.67
2022-09-15T10:10:04.450Z,1.77
2022-09-15T10:12:40.462Z,1.50
2022-09-15T10:15:20.717Z,1.73
2022-09-15T10:17:50.052Z,1.77
2022-09-15T10:20:25.578Z,1.80
2022-09-15T10:23:01.708Z,1.50
2022-09-15T10:25:49.250Z,1.90
2022-09-15T10:28:23.018Z,2.00
2022-09-15T10:31:04.997Z,1.73
2022-09-15T10:33:37.154Z,1.43
2022-09-15T10:36:17.036Z,1.73
2022-09-15T10:39:07.044Z,1.50
2022-09-15T10:41:41.139Z,1.50
2022-09-15T10:44:28.744Z,1.50
2022-09-15T10:47:16.079Z,1.43
2022-09-15T10:49:55.663Z,1.50
2022-09-15T10:52:34.552Z,1.63
2022-09-15T10:55:07.220Z,1.50
2022-09-15T10:58:05.590Z,1.70
2022-09-15T11:00:56.465Z,1.60
2022-09-15T11:03:23.332Z,1.47
2022-09-15T11:06:02.190Z,1.80
2022-09-15T11:08:48.495Z,1.60
2022-09-15T11:11:15.216Z,1.20
2022-09-15T11:13:57.298Z,1.30
2022-09-15T11:16:56.947Z,1.20
2022-09-15T11:19:32.953Z,1.43
2022-09-15T11:22:11.355Z,1.40
2022-09-15T11:24:53.116Z,1.50
2022-09-15T11:27:44.336Z,1.20
2022-09-15T11:30:34.593Z,1.40
2022-09-15T11:33:06.455Z,1.60
2022-09-15T11:35:46.938Z,1.30
2022-09-15T11:38:28.462Z,1.40
2022-09-15T11:41:24.038Z,1.50
2022-09-15T11:44:22.974Z,1.30
2022-09-15T11:46:49.894Z,1.40
2022-09-15T11:49:22.184Z,1.43
2022-09-15T11:52:18.842Z,1.10
2022-09-15T11:54:53.567Z,1.70
2022-09-15T11:57:28.165Z,1.10
2022-09-15T12:00:02.547Z,1.30
2022-09-15T12:02:51.318Z,1.27
2022-09-15T12:05:33.900Z,1.50
2022-09-15T12:08:18.918Z,1.20
2022-09-15T12:10:53.338Z,1.47
2022-09-15T12:13:22.220Z,1.57
2022-09-15T12:15:50.402Z,1.50
2022-09-15T12:18:38.130Z,1.37
2022-09-15T12:21:44.111Z,1.43
2022-09-15T12:24:17.003Z,1.40
2022-09-15T12:26:46.587Z,1.43
2022-09-15T12:29:22.424Z,1.63
2022-09-15T12:32:09.804Z,1.30
2022-09-15T12:34:38.392Z,1.60
2022-09-15T12:37:08.206Z,1.60
2022-09-15T12:39:44.460Z,1.50
2022-09-15T12:42:16.779Z,1.50
2022-09-15T12:44:48.609Z,1.57
2022-09-15T12:47:29.346Z,1.40
2022-09-15T12:50:01.605Z,1.50
2022-09-15T12:52:29.202Z,1.30
2022-09-15T12:55:02.104Z,1.47
2022-09-15T12:57:36.739Z,1.20
2022-09-15T13:00:33.172Z,1.50
2022-09-15T13:03:01.783Z,1.40
2022-09-15T13:05:46.032Z,1.60
2022-09-15T13:08:37.302Z,1.30
2022-09-15T13:11:09.305Z,1.57
2022-09-15T13:13:39.860Z,1.20
2022-09-15T13:16:14.225Z,1.23
2022-09-15T13:18:43.922Z,1.30
2022-09-15T13:21:17.455Z,1.40
2022-09-15T13:23:48.207Z,1.40
2022-09-15T13:26:22.581Z,1.47
2022-09-15T13:28:52.808Z,1.10
2022-09-15T13:32:10.697Z,1.40
2022-09-15T13:35:35.038Z,1.10
2022-09-15T13:38:24.878Z,1.53
2022-09-15T13:41:18.335Z,1.40
2022-09-15T13:44:04.306Z,1.50
2022-09-15T13:46:36.807Z,1.77
2022-09-15T13:49:37.940Z,1.40
2022-09-15T13:52:13.845Z,1.70
2022-09-15T13:55:16.954Z,1.53
2022-09-15T14:00:55.725Z,1.20
2022-09-15T14:03:39.087Z,2.40
2022-09-15T14:06:26.198Z,1.70
2022-09-15T14:09:08.599Z,1.67
2022-09-15T14:11:37.306Z,2.20
2022-09-15T14:14:11.478Z,2.10
2022-09-15T14:16:39.309Z,1.27
2022-09-15T14:19:24.870Z,1.53
2022-09-15T14:21:56.230Z,1.30
2022-09-15T14:24:30.833Z,1.33
2022-09-15T14:27:01.532Z,1.73
2022-09-15T14:29:28.403Z,1.60
2022-09-15T14:32:01.745Z,1.47
2022-09-15T14:34:32.570Z,1.50
2022-09-15T14:37:12.575Z,1.03
2022-09-15T14:39:40.373Z,1.30
2022-09-15T14:42:22.951Z,1.33
2022-09-15T14:47:43.303Z,1.40
2022-09-15T14:50:15.102Z,1.37
2022-09-15T14:53:00.336Z,1.50
2022-09-15T14:55:43.357Z,1.47
2022-09-15T14:58:25.348Z,1.27
2022-09-15T15:01:03.094Z,1.23
2022-09-15T15:03:41.477Z,1.50
2022-09-15T15:06:34.593Z,1.10
2022-09-15T15:09:19.558Z,1.40
2022-09-15T15:11:48.356Z,1.40
2022-09-15T15:14:16.448Z,1.00
2022-09-15T15:16:58.680Z,1.47
2022-09-15T15:19:36.802Z,1.10
2022-09-15T15:22:23.094Z,1.40
2022-09-15T15:24:52.560Z,1.47
2022-09-15T15:27:34.409Z,1.10
2022-09-15T15:30:32.217Z,1.40
2022-09-15T15:32:58.936Z,1.17
2022-09-15T15:35:26.202Z,1.20
2022-09-15T15:38:14.058Z,1.53
2022-09-15T15:40:41.991Z,1.80
2022-09-15T15:43:26.498Z,1.03
2022-09-15T15:46:04.830Z,1.13
2022-09-15T15:48:37.913Z,1.20
2022-09-15T15:51:06.559Z,0.97
2022-09-15T15:53:34.280Z,1.00
2022-09-15T15:56:01.183Z,1.10
2022-09-15T15:58:28.322Z,1.20
2022-09-15T16:00:56.875Z,1.20
2022-09-15T16:03:24.671Z,1.17
2022-09-15T16:05:59.387Z,0.87
2022-09-15T16:08:33.540Z,0.90
2022-09-15T16:11:02.200Z,1.40
2022-09-15T16:13:29.653Z,1.50
2022-09-15T16:16:00.223Z,1.43
2022-09-15T16:18:28.501Z,1.30
2022-09-15T16:20:55.392Z,1.00
2022-09-15T16:23:23.246Z,1.20
2022-09-15T16:25:56.650Z,1.40
2022-09-15T16:28:23.417Z,1.00
2022-09-15T16:30:50.161Z,0.90
2022-09-15T16:33:18.416Z,1.10
2022-09-15T16:35:51.151Z,1.33
2022-09-15T16:38:19.999Z,1.03
2022-09-15T16:40:51.196Z,1.00
2022-09-15T16:43:21.473Z,1.03
2022-09-15T16:45:49.590Z,0.80
2022-09-15T16:48:16.584Z,1.10
2022-09-15T16:51:16.936Z,1.00
2022-09-15T16:53:31.163Z,1.20
2022-09-15T16:55:58.113Z,0.97
2022-09-15T16:58:24.860Z,1.00
2022-09-15T17:00:52.810Z,1.20
2022-09-15T17:03:23.763Z,0.70
2022-09-15T17:05:55.295Z,1.00
2022-09-15T17:08:25.632Z,1.20
2022-09-15T17:10:53.164Z,1.03
2022-09-15T17:13:27.731Z,1.17
2022-09-15T17:15:57.275Z,1.40
2022-09-15T17:18:24.241Z,1.10
2022-09-15T17:20:51.309Z,0.87
2022-09-15T17:23:24.056Z,1.30
2022-09-15T17:25:53.004Z,1.03
2022-09-15T17:28:24.609Z,1.53
2022-09-15T17:30:56.842Z,0.97
2022-09-15T17:33:24.335Z,1.00
2022-09-15T17:35:51.556Z,1.40
2022-09-15T17:38:20.341Z,1.40
2022-09-15T17:40:48.721Z,1.20
2022-09-15T17:43:21.114Z,0.90
2022-09-15T17:45:48.920Z,1.10
2022-09-15T17:48:16.601Z,1.20
2022-09-15T17:50:45.242Z,1.10
2022-09-15T17:53:15.181Z,0.80
2022-09-15T17:55:42.233Z,1.20
2022-09-15T17:58:09.323Z,1.00
2022-09-15T18:00:38.472Z,1.20
2022-09-15T18:03:14.048Z,1.20
2022-09-15T18:05:40.828Z,1.00
2022-09-15T18:08:09.881Z,1.07
2022-09-15T18:10:37.120Z,1.13
2022-09-15T18:13:05.437Z,1.10
2022-09-15T18:15:34.537Z,1.20
2022-09-15T18:18:08.369Z,1.20
2022-09-15T18:20:36.749Z,1.17
2022-09-15T18:23:03.568Z,1.23
2022-09-15T18:25:33.595Z,1.20
2022-09-15T18:28:01.756Z,1.23
2022-09-15T18:30:31.540Z,1.20
2022-09-15T18:32:58.996Z,1.20
2022-09-15T18:35:26.560Z,1.40
2022-09-15T18:37:58.849Z,1.40
2022-09-15T18:40:27.485Z,1.60
2022-09-15T18:42:54.742Z,1.60
2022-09-15T18:45:21.535Z,1.27
2022-09-15T18:47:49.794Z,1.40
2022-09-15T18:50:18.630Z,1.20
2022-09-15T18:52:46.131Z,1.30
2022-09-15T18:55:15.859Z,1.80
2022-09-15T18:57:44.860Z,4.30
2022-09-15T19:00:15.577Z,5.30
2022-09-15T19:02:42.810Z,6.60
2022-09-15T19:05:11.525Z,3.33
2022-09-15T19:07:39.022Z,2.33
2022-09-15T19:10:07.506Z,2.00
2022-09-15T19:12:38.089Z,1.73
2022-09-15T19:15:10.788Z,1.60
2022-09-15T19:17:39.343Z,1.77
2022-09-15T19:20:08.207Z,1.47
2022-09-15T19:22:35.881Z,1.50
2022-09-15T19:25:03.267Z,1.50
2022-09-15T19:27:30.134Z,1.50
2022-09-15T19:29:56.957Z,1.40
2022-09-15T19:32:24.009Z,1.40
2022-09-15T19:34:50.994Z,1.60
2022-09-15T19:37:21.793Z,1.50
2022-09-15T19:39:48.881Z,1.40
2022-09-15T19:44:49.342Z,1.60
2022-09-15T19:47:16.339Z,1.73
2022-09-15T19:49:43.878Z,1.50
2022-09-15T19:52:11.035Z,1.50
2022-09-15T19:54:37.847Z,1.37
2022-09-15T19:57:05.280Z,1.50
2022-09-15T19:59:32.419Z,1.63
2022-09-15T20:02:00.604Z,1.40
2022-09-15T20:04:28.756Z,1.30
2022-09-15T20:06:55.554Z,1.30
2022-09-15T20:09:22.565Z,1.30
2022-09-15T20:11:49.482Z,1.60
2022-09-15T20:14:16.390Z,1.70
2022-09-15T20:16:43.327Z,1.30
2022-09-15T20:19:10.178Z,1.30
2022-09-15T20:21:54.061Z,1.37
2022-09-15T20:24:22.228Z,1.53
2022-09-15T20:26:49.238Z,1.40
2022-09-15T20:29:16.665Z,1.40
2022-09-15T20:31:43.791Z,1.43
2022-09-15T20:34:10.812Z,1.30
2022-09-15T20:36:39.272Z,1.10
2022-09-15T20:39:10.437Z,1.30
2022-09-15T20:41:37.732Z,1.40
2022-09-15T20:44:05.996Z,1.27
2022-09-15T20:46:33.494Z,1.37
2022-09-15T20:49:00.374Z,1.40
2022-09-15T20:51:31.500Z,1.40
2022-09-15T20:53:59.904Z,1.40
2022-09-15T20:56:28.785Z,1.50
2022-09-15T20:59:00.091Z,1.60
2022-09-15T21:01:29.679Z,1.37
2022-09-15T21:03:56.544Z,1.60
2022-09-15T21:06:25.752Z,1.70
2022-09-15T21:08:53.914Z,1.67
2022-09-15T21:11:21.421Z,1.67
2022-09-15T21:13:49.445Z,1.50
2022-09-15T21:16:22.160Z,1.57
2022-09-15T21:18:50.046Z,1.60
2022-09-15T21:21:25.443Z,1.40
2022-09-15T21:24:04.282Z,1.57
2022-09-15T21:26:34.160Z,1.60
2022-09-15T21:29:01.816Z,1.70
2022-09-15T21:31:30.964Z,1.60
2022-09-15T21:33:58.602Z,1.47
2022-09-15T21:36:30.622Z,1.57
2022-09-15T21:38:59.044Z,1.20
2022-09-15T21:41:29.670Z,1.60
2022-09-15T21:43:58.236Z,1.30
2022-09-15T21:46:30.625Z,1.20
2022-09-15T21:48:59.664Z,1.30
2022-09-15T21:51:28.647Z,1.07
2022-09-15T21:53:57.330Z,1.40
2022-09-15T21:56:25.084Z,1.13
2022-09-15T21:58:52.007Z,1.40
2022-09-15T22:01:27.995Z,1.40
2022-09-15T22:03:59.517Z,1.20
2022-09-15T22:06:34.801Z,1.33
2022-09-15T22:09:04.233Z,1.40
2022-09-15T22:11:31.451Z,1.40
2022-09-15T22:13:58.660Z,1.67
2022-09-15T22:16:25.765Z,1.20
2022-09-15T22:18:53.135Z,1.40
2022-09-15T22:21:26.019Z,1.33
2022-09-15T22:23:55.144Z,1.70
2022-09-15T22:26:25.699Z,1.40
2022-09-15T22:28:54.160Z,1.40
2022-09-15T22:31:22.523Z,1.57
2022-09-15T22:33:49.770Z,1.53
2022-09-15T22:36:29.374Z,1.30
2022-09-15T22:39:04.556Z,1.23
2022-09-15T22:41:36.643Z,1.17
2022-09-15T22:44:04.627Z,1.30
2022-09-15T22:46:31.854Z,1.33
2022-09-15T22:48:58.716Z,1.70
2022-09-15T22:51:25.555Z,1.40
2022-09-15T22:53:54.612Z,1.10
2022-09-15T22:56:21.650Z,1.30
2022-09-15T22:58:49.637Z,1.40
2022-09-15T23:01:25.757Z,1.20
2022-09-15T23:04:01.406Z,1.10
2022-09-15T23:06:31.332Z,1.77
2022-09-15T23:09:00.826Z,1.27
2022-09-15T23:11:29.308Z,1.40
2022-09-15T23:13:56.598Z,1.23
2022-09-15T23:16:24.295Z,1.30
2022-09-15T23:18:51.671Z,1.50
2022-09-15T23:21:19.342Z,1.20
2022-09-15T23:23:48.828Z,1.30
2022-09-15T23:26:19.460Z,1.40
2022-09-15T23:28:46.853Z,1.40
2022-09-15T23:31:13.997Z,1.40
2022-09-15T23:33:41.510Z,1.13
2022-09-15T23:36:11.261Z,1.40
2022-09-15T23:38:39.997Z,1.20
2022-09-15T23:41:07.870Z,1.47
2022-09-15T23:43:34.815Z,1.50
2022-09-15T23:46:02.176Z,1.27
2022-09-15T23:48:29.113Z,1.30
2022-09-15T23:50:55.955Z,1.20
2022-09-15T23:53:22.724Z,1.30
2022-09-15T23:55:49.702Z,1.20
2022-09-15T23:58:17.150Z,1.20
